Waldo, KS (67673)

4:24 AM CDT on August 30, 2016 (GMT -0500)
Craven / Shiroky Farm | | Change Station

Elev 1730 ft 39.02 °N, 98.67 °W | Updated 17 seconds ago

Overcast
Overcast
68.1 °F
Feels Like 68.1 °F
N
0.0
Wind Variable Wind from East
Gusts 0.0 mph

Today
High -- | Low -- °F
--% Chance of Precip.
Yesterday
High -- | Low -- °F
Precip. -- in
Pressure 30.18 in
Visibility 5.0 miles
Clouds Mostly Cloudy 400 ft
Overcast 7000 ft
Dew Point 58 °F
Humidity 71%
Rainfall 0.00 in
Snow Depth Not available.
7:02 AM 8:07 PM
Waning Crescent, 4% visible
SPECI KRSL 300906Z AUTO 34005KT 5SM BR BKN004 OVC070 20/19 A3018 RMK AO2 T02000194
Pressure 30.18 in
Visibility 5.0 miles
Clouds Mostly Cloudy 400 ft
Overcast 7000 ft
Dew Point 58 °F
Humidity 71%
Rainfall 0.00 in
Snow Depth Not available.
7:02 AM 8:07 PM
Waning Crescent, 4% visible
SPECI KRSL 300906Z AUTO 34005KT 5SM BR BKN004 OVC070 20/19 A3018 RMK AO2 T02000194

10-Day Weather Forecast

Almanac

Astronomy

Aug. 30, 2016 Rise Set
Actual Time
Civil Twilight
Nautical Twilight
Astronomical Twilight
Moon
Length of Visible Light
Length of Day
Tomorrow will be .
, % of the Moon is Illuminated

Today's Extremes

State Highs State Lows

Community

WunderPhotos

Upload Photos

1,935,795 photos uploaded!

WunderBlog® & News

Nearby

Air Quality

  Air Quality AQ Index Pollutant
Not available.

Snow Depth

Station Depth Elevation

Earthquake Activity

City Distance Mag. Time & Date
Minimum magnitude displayed is 2.5.

Coastal Water Temperatures

Place Temperature

Stations

Nearby Weather Stations

Station Location Temp. Windchill Dew Point Humidity Wind Precip. Elev Updated Type
                   

Watches & Warnings

There are currently no watches in effect.